createdAt,value
2018-08-30T00:01:16.392Z,17.00
2018-08-30T00:03:44.644Z,16.90
2018-08-30T00:06:13.041Z,17.00
2018-08-30T00:08:41.325Z,17.20
2018-08-30T00:11:09.657Z,17.20
2018-08-30T00:13:37.993Z,17.20
2018-08-30T00:16:06.557Z,17.20
2018-08-30T00:18:34.833Z,17.10
2018-08-30T00:21:03.132Z,17.00
2018-08-30T00:23:31.620Z,17.10
2018-08-30T00:25:59.985Z,17.10
2018-08-30T00:28:28.302Z,17.00
2018-08-30T00:30:56.581Z,17.10
2018-08-30T00:33:24.885Z,17.10
2018-08-30T00:35:53.171Z,17.10
2018-08-30T00:38:21.612Z,17.10
2018-08-30T00:40:49.896Z,17.20
2018-08-30T00:43:18.162Z,17.30
2018-08-30T00:45:46.456Z,17.20
2018-08-30T00:48:14.736Z,17.10
2018-08-30T00:50:43.066Z,17.10
2018-08-30T00:53:11.339Z,17.10
2018-08-30T00:55:40.108Z,17.10
2018-08-30T00:58:08.408Z,17.00
2018-08-30T01:00:36.789Z,17.00
2018-08-30T01:03:05.120Z,16.90
2018-08-30T01:05:33.381Z,16.90
2018-08-30T01:08:01.674Z,16.90
2018-08-30T01:10:30.125Z,16.90
2018-08-30T01:12:58.478Z,17.00
2018-08-30T01:15:27.476Z,17.00
2018-08-30T01:18:00.448Z,17.00
2018-08-30T01:20:28.850Z,17.00
2018-08-30T01:22:57.157Z,17.10
2018-08-30T01:25:25.446Z,17.10
2018-08-30T01:27:53.872Z,17.00
2018-08-30T01:30:22.150Z,16.90
2018-08-30T01:32:50.509Z,17.00
2018-08-30T01:35:18.816Z,17.20
2018-08-30T01:37:47.091Z,17.30
2018-08-30T01:40:15.417Z,17.20
2018-08-30T01:42:43.693Z,17.30
2018-08-30T01:45:12.023Z,17.40
2018-08-30T01:47:40.318Z,17.40
2018-08-30T01:50:08.673Z,17.30
2018-08-30T01:52:36.979Z,17.40
2018-08-30T01:55:05.281Z,17.20
2018-08-30T01:57:33.555Z,17.20
2018-08-30T02:00:01.841Z,17.20
2018-08-30T02:02:30.142Z,17.20
2018-08-30T02:04:58.445Z,17.30
2018-08-30T02:07:26.707Z,17.30
2018-08-30T02:09:54.972Z,17.30
2018-08-30T02:12:23.296Z,17.30
2018-08-30T02:14:51.594Z,17.30
2018-08-30T02:17:19.844Z,17.30
2018-08-30T02:19:48.177Z,17.30
2018-08-30T02:22:16.460Z,17.40
2018-08-30T02:24:44.781Z,17.40
2018-08-30T02:27:13.101Z,17.40
2018-08-30T02:29:41.394Z,17.40
2018-08-30T02:32:09.769Z,17.40
2018-08-30T02:34:38.151Z,17.40
2018-08-30T02:37:06.613Z,17.40
2018-08-30T02:39:34.889Z,17.30
2018-08-30T02:42:03.217Z,17.20
2018-08-30T02:44:31.597Z,17.20
2018-08-30T02:46:59.895Z,17.30
2018-08-30T02:49:28.215Z,17.30
2018-08-30T02:51:56.481Z,17.30
2018-08-30T02:54:24.758Z,17.30
2018-08-30T02:56:53.080Z,17.30
2018-08-30T02:59:21.367Z,17.30
2018-08-30T03:01:49.649Z,17.30
2018-08-30T03:04:17.945Z,17.30
2018-08-30T03:06:46.283Z,17.30
2018-08-30T03:09:14.602Z,17.20
2018-08-30T03:11:42.899Z,17.20
2018-08-30T03:14:11.263Z,17.20
2018-08-30T03:16:39.557Z,17.20
2018-08-30T03:19:08.034Z,17.30
2018-08-30T03:21:36.321Z,17.30
2018-08-30T03:24:04.625Z,17.20
2018-08-30T03:26:33.247Z,17.10
2018-08-30T03:29:01.485Z,17.10
2018-08-30T03:31:29.767Z,17.00
2018-08-30T03:33:58.055Z,17.00
2018-08-30T03:36:26.321Z,17.00
2018-08-30T03:38:54.598Z,17.00
2018-08-30T03:41:22.905Z,17.10
2018-08-30T03:43:51.194Z,17.00
2018-08-30T03:46:19.502Z,17.10
2018-08-30T03:48:47.816Z,17.10
2018-08-30T03:51:16.426Z,17.00
2018-08-30T03:53:44.711Z,17.10
2018-08-30T03:56:13.642Z,17.20
2018-08-30T03:58:41.959Z,17.20
2018-08-30T04:01:10.226Z,17.20
2018-08-30T04:03:38.526Z,17.20
2018-08-30T04:06:06.929Z,17.20
2018-08-30T04:08:35.394Z,17.20
2018-08-30T04:11:03.685Z,17.10
2018-08-30T04:13:32.035Z,17.10
2018-08-30T04:16:00.262Z,17.10
2018-08-30T04:18:28.607Z,17.10
2018-08-30T04:20:57.460Z,17.20
2018-08-30T04:23:25.717Z,17.20
2018-08-30T04:25:54.085Z,17.20
2018-08-30T04:28:22.417Z,17.20
2018-08-30T04:30:51.098Z,17.20
2018-08-30T04:33:19.391Z,17.20
2018-08-30T04:35:47.665Z,17.10
2018-08-30T04:38:15.965Z,17.20
2018-08-30T04:40:44.322Z,17.30
2018-08-30T04:43:12.733Z,17.30
2018-08-30T04:45:41.025Z,17.20
2018-08-30T04:48:09.315Z,17.10
2018-08-30T04:50:37.612Z,17.00
2018-08-30T04:53:05.933Z,17.10
2018-08-30T04:55:34.277Z,17.00
2018-08-30T04:58:02.621Z,16.90
2018-08-30T05:00:31.035Z,16.90
2018-08-30T05:02:59.348Z,16.90
2018-08-30T05:05:27.667Z,16.80
2018-08-30T05:07:55.989Z,16.90
2018-08-30T05:10:24.307Z,16.90
2018-08-30T05:12:52.737Z,16.90
2018-08-30T05:15:21.023Z,16.80
2018-08-30T05:17:49.401Z,16.80
2018-08-30T05:20:17.701Z,16.90
2018-08-30T05:22:45.994Z,16.90
2018-08-30T05:25:14.319Z,16.80
2018-08-30T05:27:42.745Z,16.80
2018-08-30T05:30:11.109Z,16.90
2018-08-30T05:32:39.419Z,16.80
2018-08-30T05:35:07.703Z,16.70
2018-08-30T05:37:36.001Z,16.70
2018-08-30T05:40:04.366Z,16.80
2018-08-30T05:42:32.674Z,16.80
2018-08-30T05:45:00.967Z,16.80
2018-08-30T05:47:29.297Z,16.90
2018-08-30T05:49:57.790Z,16.90
2018-08-30T05:52:26.198Z,16.80
2018-08-30T05:54:54.495Z,16.80
2018-08-30T05:57:22.772Z,16.80
2018-08-30T05:59:51.039Z,16.90
2018-08-30T06:02:19.433Z,16.80
2018-08-30T06:04:47.762Z,16.90
2018-08-30T06:07:16.085Z,16.90
2018-08-30T06:09:44.386Z,16.90
2018-08-30T06:12:12.876Z,17.00
2018-08-30T06:14:41.182Z,17.00
2018-08-30T06:17:09.486Z,17.10
2018-08-30T06:19:37.949Z,17.20
2018-08-30T06:22:06.285Z,17.20
2018-08-30T06:24:34.602Z,17.20
2018-08-30T06:27:03.292Z,17.20
2018-08-30T06:29:31.541Z,17.30
2018-08-30T06:32:00.762Z,17.30
2018-08-30T06:34:29.590Z,17.30
2018-08-30T06:36:57.886Z,17.30
2018-08-30T06:39:26.201Z,17.40
2018-08-30T06:41:54.492Z,17.40
2018-08-30T06:44:22.820Z,17.30
2018-08-30T06:46:51.273Z,17.20
2018-08-30T06:49:19.606Z,17.10
2018-08-30T06:51:47.900Z,17.30
2018-08-30T06:54:16.209Z,17.30
2018-08-30T06:56:44.490Z,17.40
2018-08-30T06:59:12.833Z,17.50
2018-08-30T07:01:41.232Z,17.60
2018-08-30T07:04:09.935Z,17.70
2018-08-30T07:06:38.221Z,17.80
2018-08-30T07:09:09.265Z,18.00
2018-08-30T07:11:37.553Z,17.90
2018-08-30T07:14:06.722Z,17.90
2018-08-30T07:16:35.070Z,17.90
2018-08-30T07:19:03.700Z,17.90
2018-08-30T07:21:32.498Z,18.00
2018-08-30T07:24:00.939Z,18.20
2018-08-30T07:26:29.352Z,18.60
2018-08-30T07:28:57.636Z,18.70
2018-08-30T07:31:25.936Z,18.90
2018-08-30T07:33:54.247Z,19.00
2018-08-30T07:36:22.551Z,19.30
2018-08-30T07:38:50.872Z,19.70
2018-08-30T07:41:19.138Z,20.00
2018-08-30T07:43:47.435Z,20.30
2018-08-30T07:46:15.740Z,20.40
2018-08-30T07:48:44.053Z,20.40
2018-08-30T07:51:13.537Z,20.10
2018-08-30T07:53:42.355Z,19.80
2018-08-30T07:56:10.785Z,20.40
2018-08-30T07:58:40.261Z,20.80
2018-08-30T08:01:09.705Z,21.60
2018-08-30T08:03:37.984Z,22.40
2018-08-30T08:06:06.330Z,23.40
2018-08-30T08:08:34.576Z,23.90
2018-08-30T08:11:02.958Z,24.30
2018-08-30T08:13:31.400Z,24.50
2018-08-30T08:15:59.680Z,24.60
2018-08-30T08:18:28.031Z,24.70
2018-08-30T08:20:56.305Z,24.10
2018-08-30T08:23:24.615Z,24.10
2018-08-30T08:25:52.909Z,23.90
2018-08-30T08:28:21.173Z,23.60
2018-08-30T08:30:49.479Z,23.90
2018-08-30T08:33:17.762Z,24.20
2018-08-30T08:35:46.045Z,23.90
2018-08-30T08:38:14.341Z,24.00
2018-08-30T08:40:42.733Z,24.00
2018-08-30T08:43:11.031Z,23.90
2018-08-30T08:45:39.334Z,23.80
2018-08-30T08:48:07.685Z,23.60
2018-08-30T08:50:35.969Z,24.50
2018-08-30T08:53:04.429Z,24.80
2018-08-30T08:55:32.790Z,24.10
2018-08-30T08:58:01.084Z,24.60
2018-08-30T09:00:29.382Z,25.00
2018-08-30T09:02:57.723Z,25.70
2018-08-30T09:05:25.973Z,26.40
2018-08-30T09:07:54.359Z,27.10
2018-08-30T09:10:22.857Z,27.70
2018-08-30T09:12:51.141Z,27.90
2018-08-30T09:15:19.446Z,27.40
2018-08-30T09:17:47.721Z,26.40
2018-08-30T09:20:16.009Z,25.40
2018-08-30T09:22:44.305Z,24.70
2018-08-30T09:25:12.573Z,23.90
2018-08-30T09:27:40.931Z,23.60
2018-08-30T09:30:09.225Z,24.30
2018-08-30T09:32:37.504Z,25.10
2018-08-30T09:35:06.277Z,25.60
2018-08-30T09:37:34.573Z,26.00
2018-08-30T09:40:02.979Z,26.10
2018-08-30T09:42:31.233Z,26.30
2018-08-30T09:44:59.633Z,26.50
2018-08-30T09:47:27.913Z,26.50
2018-08-30T09:49:56.165Z,26.00
2018-08-30T09:52:24.459Z,25.50
2018-08-30T09:54:52.717Z,25.00
2018-08-30T09:57:21.201Z,24.50
2018-08-30T09:59:49.355Z,24.00
2018-08-30T10:02:23.001Z,24.30
2018-08-30T10:04:51.374Z,24.80
2018-08-30T10:07:19.585Z,25.40
2018-08-30T10:09:47.870Z,25.70
2018-08-30T10:12:16.177Z,25.80
2018-08-30T10:14:44.469Z,26.00
2018-08-30T10:17:12.813Z,25.80
2018-08-30T10:19:41.223Z,26.10
2018-08-30T10:22:09.673Z,26.80
2018-08-30T10:24:38.101Z,26.50
2018-08-30T10:27:06.441Z,25.80
2018-08-30T10:29:34.735Z,25.40
2018-08-30T10:32:03.421Z,25.40
2018-08-30T10:34:31.695Z,25.80
2018-08-30T10:37:00.001Z,25.40
2018-08-30T10:39:28.405Z,24.70
2018-08-30T10:41:56.679Z,24.60
2018-08-30T10:44:24.973Z,24.60
2018-08-30T10:46:53.261Z,24.60
2018-08-30T10:49:21.579Z,24.70
2018-08-30T10:51:49.896Z,25.30
2018-08-30T10:54:18.189Z,25.60
2018-08-30T10:56:46.563Z,25.80
2018-08-30T10:59:14.902Z,25.90
2018-08-30T11:01:43.429Z,25.80
2018-08-30T11:04:11.746Z,25.70
2018-08-30T11:06:40.082Z,25.30
2018-08-30T11:09:09.541Z,25.60
2018-08-30T11:11:37.814Z,25.70
2018-08-30T11:14:06.130Z,25.60
2018-08-30T11:16:34.393Z,25.60
2018-08-30T11:19:02.807Z,25.80
2018-08-30T11:21:31.081Z,25.80
2018-08-30T11:23:59.378Z,25.90
2018-08-30T11:26:35.782Z,25.50
2018-08-30T11:29:04.853Z,25.20
2018-08-30T11:31:33.269Z,24.90
2018-08-30T11:34:01.583Z,24.50
2018-08-30T11:36:30.083Z,24.60
2018-08-30T11:38:58.550Z,24.70
2018-08-30T11:41:35.088Z,24.70
2018-08-30T11:44:03.361Z,24.50
2018-08-30T11:46:31.677Z,23.90
2018-08-30T11:48:59.954Z,23.70
2018-08-30T11:51:28.344Z,23.60
2018-08-30T11:53:56.620Z,23.40
2018-08-30T11:56:24.909Z,23.40
2018-08-30T11:58:53.241Z,23.60
2018-08-30T12:01:21.555Z,23.60
2018-08-30T12:03:49.877Z,23.70
2018-08-30T12:06:18.254Z,23.70
2018-08-30T12:08:46.573Z,23.50
2018-08-30T12:11:14.981Z,23.50
2018-08-30T12:13:43.257Z,23.30
2018-08-30T12:16:11.554Z,23.40
2018-08-30T12:18:39.854Z,23.40
2018-08-30T12:21:08.146Z,23.30
2018-08-30T12:23:36.441Z,23.40
2018-08-30T12:26:04.800Z,23.50
2018-08-30T12:28:33.629Z,23.60
2018-08-30T12:31:01.896Z,23.60
2018-08-30T12:33:30.267Z,23.60
2018-08-30T12:35:58.656Z,23.60
2018-08-30T12:38:26.923Z,23.60
2018-08-30T12:40:55.286Z,23.50
2018-08-30T12:43:23.637Z,23.40
2018-08-30T12:45:52.011Z,23.40
2018-08-30T12:48:20.311Z,23.40
2018-08-30T12:50:48.646Z,23.30
2018-08-30T12:53:17.027Z,23.30
2018-08-30T12:55:45.521Z,23.40
2018-08-30T12:58:13.762Z,23.40
2018-08-30T13:00:41.986Z,23.40
2018-08-30T13:03:10.365Z,23.40
2018-08-30T13:05:38.965Z,23.10
2018-08-30T13:08:07.061Z,22.70
2018-08-30T13:10:35.601Z,22.70
2018-08-30T13:13:03.783Z,22.60
2018-08-30T13:15:32.094Z,22.70
2018-08-30T13:18:00.398Z,22.70
2018-08-30T13:20:28.773Z,22.80
2018-08-30T13:22:57.567Z,22.90
2018-08-30T13:25:26.168Z,22.90
2018-08-30T13:27:54.364Z,23.10
2018-08-30T13:30:23.190Z,22.90
2018-08-30T13:32:51.436Z,22.90
2018-08-30T13:35:19.948Z,22.90
2018-08-30T13:37:48.254Z,23.00
2018-08-30T13:40:16.443Z,23.00
2018-08-30T13:42:44.734Z,23.10
2018-08-30T13:45:13.282Z,23.00
2018-08-30T13:47:41.614Z,23.00
2018-08-30T13:50:09.916Z,23.00
2018-08-30T13:52:38.368Z,22.90
2018-08-30T13:55:06.730Z,22.90
2018-08-30T13:57:35.390Z,22.80
2018-08-30T14:00:03.698Z,22.90
2018-08-30T14:02:31.544Z,23.10
2018-08-30T14:04:59.942Z,23.00
2018-08-30T14:07:28.439Z,22.80
2018-08-30T14:09:56.877Z,22.80
2018-08-30T14:12:25.323Z,22.80
2018-08-30T14:14:53.787Z,22.80
2018-08-30T14:17:21.813Z,22.80
2018-08-30T14:19:50.577Z,23.00
2018-08-30T14:22:19.275Z,23.10
2018-08-30T14:24:47.702Z,23.10
2018-08-30T14:27:15.951Z,22.80
2018-08-30T14:29:44.264Z,22.90
2018-08-30T14:32:12.594Z,23.00
2018-08-30T14:34:40.910Z,23.00
2018-08-30T14:37:09.207Z,23.10
2018-08-30T14:39:37.536Z,22.90
2018-08-30T14:42:05.859Z,23.00
2018-08-30T14:44:34.151Z,22.90
2018-08-30T14:47:02.475Z,22.90
2018-08-30T14:49:30.886Z,22.80
2018-08-30T14:51:59.225Z,22.40
2018-08-30T14:54:27.712Z,22.00
2018-08-30T14:56:56.090Z,22.10
2018-08-30T14:59:24.454Z,22.00
2018-08-30T15:01:52.781Z,22.00
2018-08-30T15:04:21.072Z,22.20
2018-08-30T15:06:49.581Z,22.40
2018-08-30T15:09:17.774Z,22.50
2018-08-30T15:11:46.016Z,22.70
2018-08-30T15:14:14.359Z,22.80
2018-08-30T15:16:42.662Z,22.90
2018-08-30T15:19:10.983Z,22.90
2018-08-30T15:21:39.294Z,22.60
2018-08-30T15:24:07.624Z,22.80
2018-08-30T15:26:36.098Z,22.80
2018-08-30T15:29:04.416Z,22.70
2018-08-30T15:31:32.801Z,22.70
2018-08-30T15:34:01.452Z,22.70
2018-08-30T15:36:29.594Z,22.50
2018-08-30T15:38:57.950Z,22.60
2018-08-30T15:41:26.387Z,22.60
2018-08-30T15:43:54.662Z,22.70
2018-08-30T15:46:22.948Z,22.70
2018-08-30T15:48:51.656Z,22.70
2018-08-30T15:51:19.844Z,22.80
2018-08-30T15:53:48.134Z,22.80
2018-08-30T15:56:16.418Z,22.60
2018-08-30T15:58:44.706Z,22.60
2018-08-30T16:01:13.016Z,22.50
2018-08-30T16:03:41.282Z,22.60
2018-08-30T16:06:09.707Z,22.50
2018-08-30T16:08:37.999Z,22.50
2018-08-30T16:11:06.952Z,22.40
2018-08-30T16:13:35.130Z,22.50
2018-08-30T16:16:03.397Z,22.40
2018-08-30T16:18:32.352Z,22.40
2018-08-30T16:21:00.608Z,22.50
2018-08-30T16:23:30.356Z,22.20
2018-08-30T16:25:58.776Z,22.20
2018-08-30T16:28:27.873Z,22.10
2018-08-30T16:30:56.242Z,21.90
2018-08-30T16:33:24.538Z,21.80
2018-08-30T16:35:53.103Z,21.80
2018-08-30T16:38:21.437Z,21.80
2018-08-30T16:40:49.762Z,21.70
2018-08-30T16:43:18.249Z,21.60
2018-08-30T16:45:46.878Z,21.70
2018-08-30T16:48:15.834Z,21.80
2018-08-30T16:50:44.152Z,21.90
2018-08-30T16:53:12.594Z,21.90
2018-08-30T16:55:41.149Z,21.90
2018-08-30T16:58:09.344Z,21.90
2018-08-30T17:00:37.653Z,22.00
2018-08-30T17:03:06.629Z,22.20
2018-08-30T17:05:34.906Z,22.10
2018-08-30T17:08:03.215Z,22.10
2018-08-30T17:10:31.585Z,22.00
2018-08-30T17:13:00.021Z,22.00
2018-08-30T17:15:28.332Z,22.00
2018-08-30T17:17:56.746Z,21.90
2018-08-30T17:20:50.466Z,21.90
2018-08-30T17:23:18.758Z,21.80
2018-08-30T17:25:47.092Z,21.70
2018-08-30T17:28:15.366Z,21.60
2018-08-30T17:30:44.060Z,21.60
2018-08-30T17:33:12.360Z,21.60
2018-08-30T17:35:40.719Z,21.70
2018-08-30T17:38:09.034Z,21.70
2018-08-30T17:40:37.338Z,21.70
2018-08-30T17:43:05.934Z,21.70
2018-08-30T17:45:34.452Z,21.70
2018-08-30T17:48:02.538Z,21.50
2018-08-30T17:50:30.934Z,21.40
2018-08-30T17:52:59.296Z,21.50
2018-08-30T17:55:27.660Z,21.40
2018-08-30T17:57:56.202Z,21.40
2018-08-30T18:00:24.540Z,21.40
2018-08-30T18:02:52.822Z,21.30
2018-08-30T18:05:21.142Z,21.30
2018-08-30T18:07:49.536Z,21.20
2018-08-30T18:10:17.918Z,21.20
2018-08-30T18:12:46.326Z,21.10
2018-08-30T18:15:15.567Z,21.00
2018-08-30T18:17:44.764Z,21.00
2018-08-30T18:20:13.114Z,20.90
2018-08-30T18:22:41.395Z,20.90
2018-08-30T18:25:10.518Z,20.90
2018-08-30T18:27:38.829Z,20.90
2018-08-30T18:30:08.672Z,20.90
2018-08-30T18:32:37.013Z,20.80
2018-08-30T18:35:06.921Z,20.80
2018-08-30T18:37:35.237Z,20.70
2018-08-30T18:40:03.589Z,20.70
2018-08-30T18:42:31.899Z,20.60
2018-08-30T18:45:00.205Z,20.60
2018-08-30T18:47:28.562Z,20.60
2018-08-30T18:49:57.073Z,20.60
2018-08-30T18:52:25.346Z,20.50
2018-08-30T18:54:53.642Z,20.60
2018-08-30T18:57:21.920Z,20.50
2018-08-30T18:59:50.263Z,20.50
2018-08-30T19:02:18.539Z,20.40
2018-08-30T19:04:46.986Z,20.30
2018-08-30T19:07:15.402Z,20.20
2018-08-30T19:09:43.868Z,20.10
2018-08-30T19:12:12.155Z,19.80
2018-08-30T19:14:40.450Z,19.60
2018-08-30T19:17:14.236Z,19.50
2018-08-30T19:19:42.545Z,19.50
2018-08-30T19:22:10.924Z,19.50
2018-08-30T19:24:44.592Z,19.30
2018-08-30T19:27:13.094Z,19.20
2018-08-30T19:29:46.916Z,19.10
2018-08-30T19:32:15.200Z,19.10
2018-08-30T19:34:43.518Z,19.10
2018-08-30T19:37:11.816Z,19.20
2018-08-30T19:39:40.104Z,19.30
2018-08-30T19:42:08.401Z,19.40
2018-08-30T19:44:36.698Z,19.40
2018-08-30T19:47:05.274Z,19.50
2018-08-30T19:49:33.551Z,19.50
2018-08-30T19:52:01.875Z,19.60
2018-08-30T19:54:30.240Z,19.70
2018-08-30T19:56:58.588Z,19.70
2018-08-30T19:59:26.892Z,19.70
2018-08-30T20:01:55.262Z,19.70
2018-08-30T20:04:23.552Z,19.70
2018-08-30T20:06:51.846Z,19.70
2018-08-30T20:09:20.235Z,19.70
2018-08-30T20:11:48.426Z,19.70
2018-08-30T20:14:16.692Z,19.60
2018-08-30T20:16:45.098Z,19.20
2018-08-30T20:19:13.404Z,18.70
2018-08-30T20:21:41.708Z,18.30
2018-08-30T20:24:11.183Z,18.10
2018-08-30T20:26:39.487Z,17.80
2018-08-30T20:29:07.784Z,17.70
2018-08-30T20:31:36.104Z,17.50
2018-08-30T20:34:04.405Z,17.40
2018-08-30T20:36:32.702Z,17.40
2018-08-30T20:39:01.034Z,17.30
2018-08-30T20:41:29.494Z,17.30
2018-08-30T20:43:57.775Z,17.20
2018-08-30T20:46:26.206Z,17.20
2018-08-30T20:48:54.494Z,17.20
2018-08-30T20:51:22.805Z,17.20
2018-08-30T20:53:54.614Z,17.10
2018-08-30T20:56:23.394Z,17.10
2018-08-30T20:58:51.678Z,17.10
2018-08-30T21:01:19.971Z,17.20
2018-08-30T21:03:48.245Z,17.20
2018-08-30T21:06:16.609Z,17.20
2018-08-30T21:08:44.909Z,17.10
2018-08-30T21:11:13.212Z,17.10
2018-08-30T21:13:41.581Z,16.90
2018-08-30T21:16:11.193Z,16.80
2018-08-30T21:18:39.518Z,16.70
2018-08-30T21:21:07.879Z,16.60
2018-08-30T21:23:36.078Z,16.60
2018-08-30T21:26:04.627Z,16.50
2018-08-30T21:28:33.029Z,16.40
2018-08-30T21:31:01.332Z,16.40
2018-08-30T21:33:29.717Z,16.30
2018-08-30T21:35:58.005Z,16.20
2018-08-30T21:38:26.286Z,16.30
2018-08-30T21:40:54.554Z,16.20
2018-08-30T21:43:22.887Z,16.10
2018-08-30T21:45:51.206Z,16.10
2018-08-30T21:48:19.490Z,16.00
2018-08-30T21:50:47.769Z,16.00
2018-08-30T21:53:16.054Z,15.90
2018-08-30T21:55:44.374Z,15.90
2018-08-30T21:58:12.667Z,15.90
2018-08-30T22:00:40.977Z,15.90
2018-08-30T22:03:09.289Z,15.80
2018-08-30T22:05:37.886Z,15.90
2018-08-30T22:08:06.268Z,15.80
2018-08-30T22:10:34.601Z,15.80
2018-08-30T22:13:02.906Z,15.80
2018-08-30T22:15:31.246Z,15.70
2018-08-30T22:17:59.571Z,15.70
2018-08-30T22:20:27.847Z,15.80
2018-08-30T22:22:56.136Z,15.80
2018-08-30T22:25:24.449Z,15.80
2018-08-30T22:27:52.742Z,15.90
2018-08-30T22:30:22.335Z,16.00
2018-08-30T22:32:50.690Z,16.00
2018-08-30T22:35:18.961Z,16.00
2018-08-30T22:37:47.250Z,15.90
2018-08-30T22:40:15.613Z,15.80
2018-08-30T22:42:43.815Z,15.80
2018-08-30T22:45:12.196Z,15.70
2018-08-30T22:47:40.590Z,15.60
2018-08-30T22:50:08.862Z,15.70
2018-08-30T22:52:37.135Z,15.60
2018-08-30T22:55:05.447Z,15.70
2018-08-30T22:57:33.823Z,15.80
2018-08-30T23:00:02.090Z,15.80
2018-08-30T23:02:30.337Z,15.80
2018-08-30T23:04:58.693Z,15.80
2018-08-30T23:07:27.082Z,15.50
2018-08-30T23:09:55.367Z,15.40
2018-08-30T23:12:23.657Z,15.30
2018-08-30T23:14:51.974Z,15.20
2018-08-30T23:17:20.251Z,15.30
2018-08-30T23:19:48.568Z,15.30
2018-08-30T23:22:16.895Z,15.30
2018-08-30T23:24:45.175Z,15.40
2018-08-30T23:27:13.484Z,15.40
2018-08-30T23:29:41.812Z,15.40
2018-08-30T23:32:12.756Z,15.40
2018-08-30T23:34:41.141Z,15.30
2018-08-30T23:37:09.419Z,15.30
2018-08-30T23:39:38.012Z,15.30
2018-08-30T23:42:06.278Z,15.40
2018-08-30T23:44:39.520Z,15.40
2018-08-30T23:47:07.829Z,15.50
2018-08-30T23:49:36.306Z,15.50
2018-08-30T23:52:04.611Z,15.50
2018-08-30T23:54:32.884Z,15.50
2018-08-30T23:57:01.180Z,15.50
2018-08-30T23:59:40.986Z,15.40
